Time;durP1;ratioP1;P1;durP2;ratioP2;P2;SDS_P1;SDS_P2;PMS_P1;PMS_P2;Temp;Humidity;BMP_temperature;BMP_pressure;BME280_temperature;BME280_humidity;BME280_pressure;Samples;Min_cycle;Max_cycle;Signal;HPM_P1;HPM_P2
2022/09/23 00:00:39;;;;;;;9.27;5.35;;;13.40;99.90;;;;;;5012271;28;20168;-78
2022/09/23 00:03:05;;;;;;;13.15;4.90;;;13.20;99.90;;;;;;5012533;28;20175;-78
2022/09/23 00:05:31;;;;;;;8.30;5.50;;;13.10;99.90;;;;;;5012410;28;20176;-77
2022/09/23 00:07:58;;;;;;;12.20;5.07;;;13.20;99.90;;;;;;5012652;28;20168;-78
2022/09/23 00:10:25;;;;;;;11.68;5.50;;;13.20;99.90;;;;;;5012798;28;20183;-78
2022/09/23 00:12:51;;;;;;;6.15;4.40;;;13.20;99.90;;;;;;5011585;28;20495;-77
2022/09/23 00:15:17;;;;;;;7.18;4.05;;;13.20;99.90;;;;;;5012576;28;20218;-77
2022/09/23 00:17:44;;;;;;;9.75;4.47;;;12.90;99.90;;;;;;5012885;28;20164;-78
2022/09/23 00:20:10;;;;;;;4.95;4.45;;;12.80;99.90;;;;;;5012727;28;20189;-77
2022/09/23 00:22:36;;;;;;;6.18;4.50;;;12.80;99.90;;;;;;5012776;28;20227;-78
2022/09/23 00:25:03;;;;;;;6.90;4.53;;;12.90;99.90;;;;;;5012454;28;20196;-78
2022/09/23 00:27:29;;;;;;;5.03;4.40;;;12.90;99.90;;;;;;5012741;28;20168;-77
2022/09/23 00:29:55;;;;;;;10.23;5.05;;;12.90;99.90;;;;;;5012731;28;20582;-78
2022/09/23 00:32:20;;;;;;;11.82;4.65;;;12.80;99.90;;;;;;5012302;28;20251;-79
2022/09/23 00:34:46;;;;;;;8.90;4.55;;;12.90;99.90;;;;;;5011839;28;20216;-77
2022/09/23 00:37:13;;;;;;;11.30;5.18;;;12.80;99.90;;;;;;5012202;28;20180;-77
2022/09/23 00:39:39;;;;;;;9.48;4.57;;;12.90;99.90;;;;;;5011072;28;20503;-78
2022/09/23 00:42:08;;;;;;;7.60;4.95;;;12.90;99.90;;;;;;5012533;28;20294;-79
2022/09/23 00:44:40;;;;;;;6.10;5.30;;;12.80;99.90;;;;;;5012337;28;20177;-78
2022/09/23 00:47:28;;;;;;;11.13;4.70;;;12.80;99.90;;;;;;5012259;28;20192;-80
2022/09/23 00:50:13;;;;;;;8.90;5.22;;;12.90;99.90;;;;;;5012094;28;20255;-77
2022/09/23 00:52:38;;;;;;;17.25;4.80;;;12.90;99.90;;;;;;5012116;28;20165;-78
2022/09/23 00:55:10;;;;;;;6.70;4.95;;;12.90;99.90;;;;;;5010620;28;20311;-77
2022/09/23 00:57:38;;;;;;;9.00;5.07;;;12.80;99.90;;;;;;5012326;28;20160;-77
2022/09/23 01:00:05;;;;;;;12.05;4.70;;;12.70;99.90;;;;;;5012374;28;20223;-77
2022/09/23 01:02:32;;;;;;;11.63;5.13;;;12.70;99.90;;;;;;5012321;28;20165;-78
2022/09/23 01:04:59;;;;;;;4.75;4.25;;;12.50;99.90;;;;;;5012692;28;20189;-77
2022/09/23 01:07:25;;;;;;;6.22;4.75;;;12.50;99.90;;;;;;5011131;28;20169;-77
2022/09/23 01:09:51;;;;;;;9.77;4.65;;;12.60;99.90;;;;;;5012426;28;20191;-77
2022/09/23 01:12:29;;;;;;;8.98;5.30;;;12.60;99.90;;;;;;5016080;28;20176;-82
2022/09/23 01:15:19;;;;;;;5.78;3.85;;;12.60;99.90;;;;;;5015847;28;20200;-78
2022/09/23 01:18:10;;;;;;;11.52;4.85;;;12.50;99.90;;;;;;5015841;28;20553;-78
2022/09/23 01:20:43;;;;;;;6.22;4.90;;;12.60;99.90;;;;;;5015851;28;20172;-77
2022/09/23 01:23:33;;;;;;;5.95;4.10;;;12.40;99.90;;;;;;5015372;28;20223;-78
2022/09/23 01:26:14;;;;;;;13.82;4.85;;;12.30;99.90;;;;;;5015251;28;20168;-78
2022/09/23 01:29:09;;;;;;;9.07;5.45;;;12.30;99.90;;;;;;5015378;28;20183;-78
2022/09/23 01:31:42;;;;;;;8.13;4.82;;;12.40;99.90;;;;;;5015819;28;20208;-77
2022/09/23 01:34:25;;;;;;;4.75;3.85;;;12.50;99.90;;;;;;5015975;28;20235;-78
2022/09/23 01:36:59;;;;;;;15.27;4.60;;;12.70;99.90;;;;;;5015861;28;20562;-77
2022/09/23 01:39:38;;;;;;;10.57;4.47;;;12.80;99.90;;;;;;5015918;28;20333;-77
2022/09/23 01:42:08;;;;;;;7.07;4.45;;;12.70;99.90;;;;;;5015910;28;20180;-78
2022/09/23 01:44:47;;;;;;;7.95;4.63;;;12.70;99.90;;;;;;5020817;28;20552;-77
2022/09/23 01:47:20;;;;;;;8.00;4.57;;;12.70;99.90;;;;;;5025065;28;20196;-77
2022/09/23 01:50:01;;;;;;;5.88;5.30;;;12.70;99.90;;;;;;5036773;28;20175;-77
2022/09/23 01:52:37;;;;;;;6.10;4.65;;;12.70;99.90;;;;;;5015778;28;20168;-77
2022/09/23 01:55:09;;;;;;;12.07;4.47;;;12.60;99.90;;;;;;5015576;28;20208;-77
2022/09/23 01:57:42;;;;;;;4.43;4.03;;;12.30;99.90;;;;;;5015323;28;20207;-77
2022/09/23 02:00:15;;;;;;;10.30;5.28;;;12.40;99.90;;;;;;5015574;28;20208;-77
2022/09/23 02:02:48;;;;;;;7.13;5.40;;;12.40;99.90;;;;;;5014136;28;20165;-77
2022/09/23 02:05:26;;;;;;;4.88;4.45;;;12.40;99.90;;;;;;5015268;28;20671;-79
2022/09/23 02:08:02;;;;;;;4.90;4.40;;;12.40;99.90;;;;;;5015107;28;20168;-77
2022/09/23 02:10:34;;;;;;;5.85;4.00;;;12.40;99.90;;;;;;5014930;28;20171;-80
2022/09/23 02:13:05;;;;;;;7.18;4.78;;;12.30;99.90;;;;;;5015389;28;20222;-77
2022/09/23 02:15:36;;;;;;;6.68;4.72;;;12.40;99.90;;;;;;5015204;28;20681;-77
2022/09/23 02:18:11;;;;;;;5.13;4.57;;;12.30;99.90;;;;;;5015037;28;20165;-78
2022/09/23 02:20:41;;;;;;;6.43;4.85;;;12.30;99.90;;;;;;5014711;28;20630;-77
2022/09/23 02:23:30;;;;;;;9.02;5.28;;;12.40;99.90;;;;;;5013400;28;20164;-85
2022/09/23 02:26:07;;;;;;;7.75;4.93;;;12.20;99.90;;;;;;5013900;28;20196;-78
2022/09/23 02:28:55;;;;;;;11.98;5.97;;;12.10;99.90;;;;;;5014239;28;20172;-78
2022/09/23 02:31:28;;;;;;;7.75;5.60;;;12.10;99.90;;;;;;5014328;28;20169;-79
2022/09/23 02:34:12;;;;;;;14.07;5.78;;;12.20;99.90;;;;;;5014509;28;20220;-78
2022/09/23 02:36:49;;;;;;;7.68;5.90;;;12.20;99.90;;;;;;5014509;28;20682;-78
2022/09/23 02:39:18;;;;;;;10.93;6.35;;;12.20;99.90;;;;;;5014683;28;20169;-78
2022/09/23 02:42:01;;;;;;;9.50;5.90;;;12.20;99.90;;;;;;5014846;28;20165;-78
2022/09/23 02:44:27;;;;;;;13.70;6.18;;;12.10;99.90;;;;;;5014755;28;20181;-77
2022/09/23 02:46:53;;;;;;;10.50;5.70;;;12.10;99.90;;;;;;5013496;28;21198;-78
2022/09/23 02:49:28;;;;;;;6.68;5.65;;;12.20;99.90;;;;;;5014830;28;20169;-77
2022/09/23 02:51:55;;;;;;;8.38;4.38;;;12.20;99.90;;;;;;5014744;28;20215;-78
2022/09/23 02:54:26;;;;;;;6.63;5.68;;;12.10;99.90;;;;;;5014360;28;20209;-78
2022/09/23 02:56:52;;;;;;;6.55;4.70;;;12.00;99.90;;;;;;5014807;28;20211;-82
2022/09/23 02:59:22;;;;;;;6.55;4.15;;;11.80;99.90;;;;;;5015324;28;20199;-78
2022/09/23 03:02:06;;;;;;;15.57;6.07;;;11.80;99.90;;;;;;5026426;28;20165;-79
2022/09/23 03:05:05;;;;;;;5.80;5.13;;;11.90;99.90;;;;;;5034221;28;20195;-79
2022/09/23 03:07:46;;;;;;;5.93;4.78;;;12.10;99.90;;;;;;5033105;28;20188;-82
2022/09/23 03:10:27;;;;;;;6.20;5.38;;;12.10;99.90;;;;;;5033197;28;20196;-89
2022/09/23 03:13:10;;;;;;;6.35;4.15;;;12.20;99.90;;;;;;5033906;28;20224;-81
2022/09/23 03:15:59;;;;;;;6.82;3.67;;;12.10;99.90;;;;;;5033495;28;20188;-83
2022/09/23 03:18:42;;;;;;;12.63;4.43;;;12.10;99.90;;;;;;5037797;28;20172;-78
2022/09/23 03:21:20;;;;;;;4.78;4.32;;;11.90;99.90;;;;;;5031679;28;20314;-78
2022/09/23 03:23:46;;;;;;;5.45;4.32;;;12.00;99.90;;;;;;5029511;28;20192;-78
2022/09/23 03:26:19;;;;;;;11.48;4.85;;;12.10;99.90;;;;;;5027675;28;20165;-79
2022/09/23 03:28:46;;;;;;;5.68;5.15;;;12.10;99.90;;;;;;5029029;28;20165;-78
2022/09/23 03:31:13;;;;;;;27.98;4.97;;;12.30;99.90;;;;;;5030285;28;20241;-79
2022/09/23 03:34:09;;;;;;;6.05;4.47;;;12.40;99.90;;;;;;5027989;28;20184;-78
2022/09/23 03:37:20;;;;;;;6.57;4.95;;;12.20;99.90;;;;;;5023363;28;20227;-78
2022/09/23 03:39:57;;;;;;;5.60;4.38;;;12.20;99.90;;;;;;4998939;28;20177;-78
2022/09/23 03:42:28;;;;;;;8.70;4.97;;;12.20;99.90;;;;;;5013086;28;20173;-79
2022/09/23 03:44:56;;;;;;;4.80;4.40;;;12.20;99.90;;;;;;5013423;28;20188;-78
2022/09/23 03:47:24;;;;;;;5.75;3.83;;;12.10;99.90;;;;;;5012215;28;20187;-78
2022/09/23 03:49:50;;;;;;;8.30;5.22;;;12.10;99.90;;;;;;5013308;28;20171;-78
2022/09/23 03:52:19;;;;;;;8.90;4.70;;;12.20;99.90;;;;;;5013251;28;20226;-78
2022/09/23 03:54:44;;;;;;;8.02;4.63;;;12.30;99.90;;;;;;5013325;28;20194;-78
2022/09/23 03:57:11;;;;;;;14.18;4.68;;;12.30;99.90;;;;;;5013215;28;20534;-78
2022/09/23 03:59:37;;;;;;;5.22;4.38;;;12.40;99.90;;;;;;5013152;28;20219;-78
2022/09/23 04:02:04;;;;;;;8.98;4.80;;;12.40;99.90;;;;;;5011668;28;20595;-89
2022/09/23 04:04:33;;;;;;;11.40;4.65;;;12.60;99.90;;;;;;5013200;28;20275;-82
2022/09/23 04:06:59;;;;;;;6.28;4.88;;;12.50;99.90;;;;;;5012800;28;20177;-79
2022/09/23 04:09:24;;;;;;;8.07;4.60;;;12.50;99.90;;;;;;5012510;28;20179;-79
2022/09/23 04:11:51;;;;;;;7.05;5.22;;;12.30;99.90;;;;;;5011599;28;20887;-79
2022/09/23 04:14:18;;;;;;;17.17;6.00;;;12.20;99.90;;;;;;5012802;28;20560;-79
2022/09/23 04:16:45;;;;;;;5.18;4.68;;;12.40;99.90;;;;;;5012409;28;20216;-79
2022/09/23 04:19:11;;;;;;;10.60;5.22;;;12.40;99.90;;;;;;5010859;28;20654;-78
2022/09/23 04:21:37;;;;;;;5.82;4.75;;;12.50;99.90;;;;;;5012250;28;20242;-79
2022/09/23 04:24:03;;;;;;;7.70;4.15;;;12.70;99.90;;;;;;5012562;28;20184;-79
2022/09/23 04:26:30;;;;;;;5.60;4.53;;;12.70;99.90;;;;;;5012809;28;20164;-80
2022/09/23 04:28:55;;;;;;;6.80;4.65;;;12.50;99.90;;;;;;5012232;28;20204;-80
2022/09/23 04:31:22;;;;;;;9.07;4.90;;;12.50;99.90;;;;;;5013606;28;20192;-79
2022/09/23 04:33:48;;;;;;;8.02;4.72;;;12.60;99.90;;;;;;5013281;28;20704;-79
2022/09/23 04:36:14;;;;;;;7.47;5.43;;;12.70;99.90;;;;;;5013712;28;20208;-79
2022/09/23 04:38:43;;;;;;;7.88;4.43;;;12.80;99.90;;;;;;5012836;28;20299;-79
2022/09/23 04:41:09;;;;;;;9.10;4.95;;;12.80;99.90;;;;;;5012399;28;20172;-79
2022/09/23 04:43:34;;;;;;;7.18;5.00;;;12.80;99.90;;;;;;5012908;28;20193;-79
2022/09/23 04:46:02;;;;;;;9.68;4.10;;;12.70;99.90;;;;;;5014551;28;20176;-79
2022/09/23 04:48:28;;;;;;;13.32;5.53;;;12.60;99.90;;;;;;5016198;28;20647;-80
2022/09/23 04:50:54;;;;;;;15.32;4.85;;;12.70;99.90;;;;;;5017260;28;20186;-80
2022/09/23 04:53:21;;;;;;;7.15;5.32;;;12.80;99.90;;;;;;5016908;28;20678;-85
2022/09/23 04:55:47;;;;;;;6.68;4.85;;;12.80;99.90;;;;;;5015189;28;20214;-82
2022/09/23 04:58:12;;;;;;;7.88;5.53;;;12.90;99.90;;;;;;5017004;28;20521;-80
2022/09/23 05:00:38;;;;;;;11.77;5.50;;;13.00;99.90;;;;;;5017443;28;20173;-82
2022/09/23 05:03:03;;;;;;;7.40;4.75;;;13.00;99.90;;;;;;5016590;28;20528;-86
2022/09/23 05:05:29;;;;;;;7.85;4.65;;;12.80;99.90;;;;;;5016549;28;20189;-80
2022/09/23 05:07:55;;;;;;;6.85;5.40;;;12.80;99.90;;;;;;5016261;28;20172;-83
2022/09/23 05:10:21;;;;;;;12.93;5.88;;;12.90;99.90;;;;;;5016256;28;20177;-79
2022/09/23 05:12:47;;;;;;;8.35;5.93;;;12.80;99.90;;;;;;5014723;28;20169;-78
2022/09/23 05:15:14;;;;;;;8.27;5.10;;;12.90;99.90;;;;;;5015964;28;20240;-79
2022/09/23 05:17:43;;;;;;;12.38;5.88;;;13.00;99.90;;;;;;5015952;28;20562;-79
2022/09/23 05:20:10;;;;;;;13.05;5.90;;;12.90;99.90;;;;;;5015978;28;20172;-78
2022/09/23 05:22:36;;;;;;;12.63;4.88;;;12.90;99.90;;;;;;5015556;28;20168;-85
2022/09/23 05:25:02;;;;;;;7.85;5.88;;;12.90;99.90;;;;;;5015304;28;20547;-79
2022/09/23 05:27:27;;;;;;;16.10;5.50;;;13.00;99.90;;;;;;5015422;28;20673;-79
2022/09/23 05:29:53;;;;;;;8.23;5.47;;;13.00;99.90;;;;;;5015722;28;20168;-79
2022/09/23 05:32:19;;;;;;;8.70;5.32;;;13.00;99.90;;;;;;5015529;28;20538;-79
2022/09/23 05:34:45;;;;;;;6.88;5.18;;;13.00;99.90;;;;;;5015430;28;20216;-82
2022/09/23 05:37:11;;;;;;;8.32;5.22;;;13.00;99.90;;;;;;5014176;28;20215;-79
2022/09/23 05:39:36;;;;;;;15.80;6.00;;;12.90;99.90;;;;;;5015610;28;20216;-80
2022/09/23 05:42:02;;;;;;;14.88;6.07;;;13.00;99.90;;;;;;5014135;28;20177;-92
2022/09/23 05:44:28;;;;;;;7.13;5.28;;;13.00;99.90;;;;;;5014848;28;20188;-86
2022/09/23 05:46:54;;;;;;;23.23;6.40;;;13.00;99.90;;;;;;5015354;28;20211;-79
2022/09/23 05:49:19;;;;;;;21.88;7.55;;;13.00;99.90;;;;;;5015359;28;20168;-78
2022/09/23 05:51:45;;;;;;;12.73;6.22;;;13.10;99.90;;;;;;5014501;28;20180;-79
2022/09/23 05:54:11;;;;;;;14.60;5.85;;;13.10;99.90;;;;;;5015052;28;20216;-79
2022/09/23 05:56:36;;;;;;;14.77;5.82;;;13.20;99.90;;;;;;5013851;28;20353;-80
2022/09/23 05:59:03;;;;;;;8.05;5.63;;;13.20;99.90;;;;;;5014155;28;20218;-89
2022/09/23 06:01:34;;;;;;;23.05;6.80;;;13.10;99.90;;;;;;5014815;28;20318;-79
2022/09/23 06:04:01;;;;;;;10.63;7.07;;;13.20;99.90;;;;;;5014961;28;20207;-79
2022/09/23 06:06:32;;;;;;;15.07;6.28;;;13.40;99.90;;;;;;5015107;28;20157;-80
2022/09/23 06:08:59;;;;;;;22.27;6.95;;;13.40;99.90;;;;;;5015467;28;20165;-79
2022/09/23 06:11:28;;;;;;;21.63;7.15;;;13.30;99.90;;;;;;5015189;28;20168;-78
2022/09/23 06:13:55;;;;;;;13.02;6.57;;;13.20;99.90;;;;;;5014833;28;20184;-79
2022/09/23 06:16:21;;;;;;;21.48;8.20;;;13.40;99.90;;;;;;5014467;28;20259;-78
2022/09/23 06:18:46;;;;;;;18.27;7.80;;;13.60;99.90;;;;;;5014052;28;20243;-79
2022/09/23 06:21:14;;;;;;;26.40;7.80;;;13.70;99.90;;;;;;5018187;28;20252;-79
2022/09/23 06:23:40;;;;;;;12.50;7.57;;;13.80;99.90;;;;;;5025538;28;20184;-78
2022/09/23 06:26:09;;;;;;;16.48;7.80;;;13.80;99.90;;;;;;5035776;28;20161;-77
2022/09/23 06:28:36;;;;;;;27.42;9.60;;;13.90;99.90;;;;;;5016995;28;20161;-77
2022/09/23 06:31:08;;;;;;;22.38;9.50;;;14.00;99.90;;;;;;5015424;28;20199;-78
2022/09/23 06:33:34;;;;;;;31.17;10.05;;;14.10;99.90;;;;;;5015299;28;20243;-87
2022/09/23 06:36:03;;;;;;;17.30;8.40;;;14.20;99.90;;;;;;5014655;28;20675;-78
2022/09/23 06:38:29;;;;;;;18.38;8.55;;;14.30;99.90;;;;;;5014124;28;20168;-78
2022/09/23 06:40:56;;;;;;;15.18;7.15;;;14.30;99.90;;;;;;5012985;28;20589;-78
2022/09/23 06:43:23;;;;;;;32.63;9.77;;;14.40;99.90;;;;;;5014323;28;20251;-78
2022/09/23 06:45:57;;;;;;;29.30;7.95;;;14.50;99.90;;;;;;5014430;28;20218;-78
2022/09/23 06:48:25;;;;;;;15.95;7.65;;;14.60;99.90;;;;;;5013866;28;20188;-78
2022/09/23 06:50:52;;;;;;;26.70;8.00;;;14.80;99.90;;;;;;5012032;28;20256;-78
2022/09/23 06:53:22;;;;;;;13.40;7.40;;;14.60;99.90;;;;;;5014130;28;20168;-78
2022/09/23 06:55:56;;;;;;;21.80;7.63;;;14.70;99.90;;;;;;5014011;28;20210;-78
2022/09/23 06:58:21;;;;;;;17.13;7.40;;;14.80;99.90;;;;;;5014161;28;20717;-78
2022/09/23 07:00:47;;;;;;;24.52;7.70;;;14.90;99.90;;;;;;5013980;28;20256;-78
2022/09/23 07:03:12;;;;;;;22.45;8.43;;;15.00;99.90;;;;;;5013933;28;20527;-78
2022/09/23 07:05:38;;;;;;;28.02;7.53;;;15.20;99.90;;;;;;5014141;28;20175;-79
2022/09/23 07:08:10;;;;;;;17.40;8.45;;;15.30;99.90;;;;;;5013538;28;20253;-78
2022/09/23 07:10:36;;;;;;;19.00;7.53;;;15.10;99.90;;;;;;5014006;28;20180;-80
2022/09/23 07:13:03;;;;;;;22.33;8.63;;;15.20;99.90;;;;;;5013798;28;20251;-78
2022/09/23 07:15:29;;;;;;;13.98;7.93;;;15.20;99.90;;;;;;5013668;28;20219;-78
2022/09/23 07:17:55;;;;;;;17.80;8.38;;;15.20;99.90;;;;;;5013851;28;20177;-79
2022/09/23 07:20:20;;;;;;;22.63;8.15;;;15.40;99.90;;;;;;5014118;28;20169;-77
2022/09/23 07:22:51;;;;;;;24.98;8.07;;;15.50;99.90;;;;;;5012559;28;20215;-78
2022/09/23 07:25:19;;;;;;;15.77;8.27;;;15.60;99.90;;;;;;5013151;28;20236;-84
2022/09/23 07:27:46;;;;;;;27.75;8.98;;;15.70;99.90;;;;;;5013811;28;20176;-78
2022/09/23 07:30:13;;;;;;;15.23;6.88;;;15.40;99.90;;;;;;5013933;28;20184;-79
2022/09/23 07:32:40;;;;;;;21.70;8.05;;;15.20;99.90;;;;;;5013739;28;20251;-78
2022/09/23 07:35:07;;;;;;;19.48;7.13;;;15.20;99.90;;;;;;5011576;28;20273;-78
2022/09/23 07:37:32;;;;;;;17.98;7.50;;;15.50;99.90;;;;;;5012661;28;20626;-79
2022/09/23 07:39:58;;;;;;;30.50;7.63;;;15.60;99.90;;;;;;5012855;28;20176;-80
2022/09/23 07:42:23;;;;;;;16.02;7.82;;;15.80;99.90;;;;;;5013146;28;20522;-88
2022/09/23 07:44:49;;;;;;;22.58;7.43;;;15.80;99.90;;;;;;5013451;28;20195;-79
2022/09/23 07:47:16;;;;;;;19.50;7.28;;;16.00;99.90;;;;;;5014447;28;20165;-78
2022/09/23 07:49:42;;;;;;;23.45;7.18;;;16.10;99.90;;;;;;5015014;28;20641;-78
2022/09/23 07:52:07;;;;;;;21.60;7.07;;;16.10;99.90;;;;;;5014640;28;20168;-78
2022/09/23 07:54:33;;;;;;;18.23;6.85;;;16.10;99.90;;;;;;5013783;28;20279;-78
2022/09/23 07:57:00;;;;;;;16.02;7.40;;;16.00;99.90;;;;;;5013147;28;20796;-79
2022/09/23 07:59:26;;;;;;;21.98;7.32;;;16.10;99.90;;;;;;5010731;28;20797;-80
2022/09/23 08:01:52;;;;;;;20.23;7.57;;;16.30;99.90;;;;;;5011463;28;20567;-78
2022/09/23 08:04:24;;;;;;;13.38;6.78;;;16.40;99.90;;;;;;5013349;28;20185;-78
2022/09/23 08:06:53;;;;;;;9.40;5.50;;;16.50;99.90;;;;;;5012827;28;20165;-78
2022/09/23 08:09:21;;;;;;;12.00;6.07;;;16.60;99.90;;;;;;5012683;28;20255;-79
2022/09/23 08:11:48;;;;;;;21.45;6.72;;;16.70;99.90;;;;;;5014114;28;20172;-79
2022/09/23 08:14:16;;;;;;;9.27;5.78;;;16.60;99.90;;;;;;5013459;28;20196;-78
2022/09/23 08:16:44;;;;;;;11.02;6.60;;;16.70;99.90;;;;;;5012224;28;20220;-78
2022/09/23 08:19:09;;;;;;;20.42;6.47;;;16.80;99.90;;;;;;5013651;28;20240;-78
2022/09/23 08:21:37;;;;;;;12.63;6.78;;;17.00;99.90;;;;;;5011309;28;20173;-78
2022/09/23 08:24:07;;;;;;;26.27;6.47;;;17.10;99.90;;;;;;5014230;28;20654;-78
2022/09/23 08:26:33;;;;;;;23.05;6.15;;;17.10;99.90;;;;;;5013564;28;20255;-78
2022/09/23 08:28:59;;;;;;;8.55;4.72;;;16.80;99.90;;;;;;5013581;28;20705;-78
2022/09/23 08:31:24;;;;;;;21.15;6.50;;;16.90;99.90;;;;;;5013287;28;20199;-78
2022/09/23 08:33:57;;;;;;;25.95;5.18;;;16.90;99.90;;;;;;5014591;28;20188;-80
2022/09/23 08:36:23;;;;;;;9.57;4.95;;;16.70;99.90;;;;;;5017625;28;20565;-80
2022/09/23 08:38:49;;;;;;;19.23;5.43;;;16.90;99.90;;;;;;5018664;28;20271;-80
2022/09/23 08:41:24;;;;;;;13.82;5.70;;;17.10;99.90;;;;;;5017850;28;20192;-78
2022/09/23 08:44:25;;;;;;;10.98;5.57;;;17.20;99.90;;;;;;5014065;28;20188;-80
2022/09/23 08:47:00;;;;;;;15.18;5.78;;;17.30;99.90;;;;;;5013411;28;20168;-79
2022/09/23 08:49:34;;;;;;;27.17;6.45;;;17.60;99.90;;;;;;5012997;28;20203;-81
2022/09/23 08:52:05;;;;;;;12.57;5.28;;;17.50;99.90;;;;;;5013215;28;20180;-85
2022/09/23 08:54:31;;;;;;;11.18;5.13;;;17.60;99.90;;;;;;5013350;28;20188;-81
2022/09/23 08:57:00;;;;;;;11.07;6.22;;;17.60;99.90;;;;;;5012942;28;20566;-84
2022/09/23 08:59:30;;;;;;;6.28;4.82;;;17.70;99.90;;;;;;5011276;28;20168;-78
2022/09/23 09:02:04;;;;;;;14.50;5.63;;;18.10;99.90;;;;;;5011423;28;20199;-82
2022/09/23 09:04:36;;;;;;;16.55;4.65;;;17.70;99.90;;;;;;5011698;28;20223;-80
2022/09/23 09:07:08;;;;;;;6.47;4.28;;;17.80;99.90;;;;;;5012759;28;20200;-77
2022/09/23 09:09:53;;;;;;;10.68;5.95;;;17.80;99.90;;;;;;5012097;28;20218;-79
2022/09/23 09:12:39;;;;;;;11.68;5.25;;;18.20;99.90;;;;;;5012869;28;20179;-78
2022/09/23 09:15:12;;;;;;;19.40;5.85;;;18.30;99.90;;;;;;5011909;28;20207;-77
2022/09/23 09:18:05;;;;;;;7.45;5.25;;;18.40;99.90;;;;;;5011579;28;20185;-77
2022/09/23 09:20:56;;;;;;;12.38;4.82;;;18.80;99.90;;;;;;5006821;28;20267;-77
2022/09/23 09:23:44;;;;;;;10.93;4.97;;;18.90;99.90;;;;;;5011989;28;20196;-79
2022/09/23 09:26:20;;;;;;;20.23;5.00;;;18.90;99.90;;;;;;5010670;28;20168;-77
2022/09/23 09:28:57;;;;;;;15.77;5.13;;;19.00;99.90;;;;;;5012002;28;20160;-77
2022/09/23 09:31:41;;;;;;;9.05;4.82;;;19.10;99.90;;;;;;5012444;28;20165;-78
2022/09/23 09:34:26;;;;;;;8.43;4.50;;;19.50;99.90;;;;;;5014818;28;20262;-86
2022/09/23 09:37:07;;;;;;;14.57;4.65;;;19.60;99.90;;;;;;4995503;28;20544;-80
2022/09/23 09:39:34;;;;;;;8.93;4.90;;;19.70;99.90;;;;;;4995844;28;20157;-79
2022/09/23 09:42:00;;;;;;;10.27;4.82;;;19.70;99.90;;;;;;4994788;28;20179;-79
2022/09/23 09:45:04;;;;;;;13.00;5.63;;;19.80;99.90;;;;;;4997261;28;20654;-78
2022/09/23 09:47:50;;;;;;;10.13;4.47;;;19.90;99.90;;;;;;5001185;28;20715;-79
2022/09/23 09:50:37;;;;;;;8.70;4.57;;;19.90;99.90;;;;;;4994631;28;20177;-79
2022/09/23 09:53:25;;;;;;;8.68;4.60;;;19.80;99.90;;;;;;4994849;28;20192;-78
2022/09/23 09:56:06;;;;;;;5.15;4.10;;;20.10;99.90;;;;;;4994600;28;20213;-77
2022/09/23 09:58:49;;;;;;;7.63;4.10;;;20.00;99.90;;;;;;4995555;28;20229;-79
2022/09/23 10:01:29;;;;;;;15.10;4.32;;;19.60;99.90;;;;;;5009616;28;20181;-78
2022/09/23 10:03:57;;;;;;;11.45;5.00;;;20.00;99.90;;;;;;5014352;28;20594;-77
2022/09/23 10:06:34;;;;;;;15.30;4.10;;;20.10;99.90;;;;;;5014742;28;20180;-78
2022/09/23 10:09:00;;;;;;;9.13;3.92;;;20.20;99.90;;;;;;5013689;28;20674;-78
2022/09/23 10:11:27;;;;;;;7.50;3.97;;;20.30;99.90;;;;;;4998488;28;20177;-82
2022/09/23 10:13:59;;;;;;;6.40;3.95;;;20.50;99.90;;;;;;4995238;28;20189;-87
2022/09/23 10:16:25;;;;;;;8.30;4.68;;;20.70;99.90;;;;;;4995501;28;20205;-78
2022/09/23 10:18:54;;;;;;;6.22;4.03;;;20.70;99.90;;;;;;4995322;28;20180;-83
2022/09/23 10:21:22;;;;;;;7.15;4.03;;;20.70;99.90;;;;;;5010237;28;20585;-79
2022/09/23 10:23:51;;;;;;;9.15;3.30;;;20.80;99.90;;;;;;5013875;28;20185;-79
2022/09/23 10:26:25;;;;;;;6.13;3.40;;;20.70;99.90;;;;;;5014221;28;20177;-81
2022/09/23 10:28:54;;;;;;;5.75;3.05;;;20.60;99.90;;;;;;5014657;28;20164;-84
2022/09/23 10:31:33;;;;;;;7.88;3.50;;;20.80;99.90;;;;;;5013919;28;20188;-79
2022/09/23 10:34:00;;;;;;;9.80;3.90;;;20.70;99.90;;;;;;5014005;28;20192;-79
2022/09/23 10:36:31;;;;;;;11.80;3.58;;;20.90;99.90;;;;;;5013685;28;20204;-80
2022/09/23 10:47:48;;;;;;;6.35;2.83;;;21.40;99.90;;;;;;5014262;28;20242;-79
2022/09/23 10:50:18;;;;;;;10.52;2.83;;;21.60;99.90;;;;;;5014001;28;20157;-80
2022/09/23 10:52:55;;;;;;;16.02;3.85;;;21.70;99.90;;;;;;5013984;28;20179;-79
2022/09/23 10:55:24;;;;;;;4.70;2.50;;;21.70;99.90;;;;;;5013463;28;20242;-80
2022/09/23 10:58:26;;;;;;;4.07;3.03;;;21.90;99.90;;;;;;5013549;28;20165;-79
2022/09/23 11:01:30;;;;;;;4.28;2.83;;;21.80;99.90;;;;;;5013747;28;20164;-79
2022/09/23 11:04:15;;;;;;;4.38;2.92;;;21.80;99.90;;;;;;5004579;28;20205;-79
2022/09/23 11:07:01;;;;;;;9.23;3.28;;;21.80;99.90;;;;;;5013079;28;20164;-81
2022/09/23 11:09:42;;;;;;;5.28;3.03;;;21.80;99.90;;;;;;5013518;28;20322;-81
2022/09/23 11:12:32;;;;;;;5.15;4.03;;;21.50;99.90;;;;;;5012170;28;20174;-84
2022/09/23 11:15:22;;;;;;;6.25;3.58;;;21.20;99.90;;;;;;5012339;28;20420;-86
2022/09/23 11:18:16;;;;;;;6.00;3.25;;;21.20;99.90;;;;;;5014047;28;20176;-80
2022/09/23 11:20:58;;;;;;;8.23;3.53;;;21.30;99.90;;;;;;4976890;28;20185;-79
2022/09/23 11:23:50;;;;;;;7.18;3.08;;;21.40;99.90;;;;;;5012502;28;20172;-80
2022/09/23 11:26:43;;;;;;;9.63;3.85;;;21.60;99.90;;;;;;5013611;28;20168;-79
2022/09/23 11:29:14;;;;;;;4.20;3.03;;;21.80;99.90;;;;;;5013747;28;20175;-79
2022/09/23 11:32:08;;;;;;;3.97;3.17;;;21.60;99.90;;;;;;5013343;28;20183;-80
2022/09/23 11:35:15;;;;;;;5.63;3.58;;;21.50;99.90;;;;;;5013187;28;20180;-78
2022/09/23 11:38:06;;;;;;;6.40;3.63;;;21.70;99.90;;;;;;5012058;28;20215;-79
2022/09/23 11:40:38;;;;;;;3.83;3.35;;;21.90;99.90;;;;;;5009730;28;20181;-78
2022/09/23 11:43:17;;;;;;;10.57;3.30;;;22.00;99.90;;;;;;5013831;28;20775;-80
2022/09/23 11:46:08;;;;;;;9.70;3.50;;;22.30;99.90;;;;;;5013506;28;20243;-80
2022/09/23 11:48:50;;;;;;;5.05;3.28;;;22.40;99.90;;;;;;5013165;28;20239;-80
2022/09/23 11:51:39;;;;;;;4.65;3.45;;;22.10;99.90;;;;;;5013469;28;20665;-89
2022/09/23 11:54:25;;;;;;;9.93;3.13;;;22.10;99.90;;;;;;5012781;28;20674;-79
2022/09/23 11:56:53;;;;;;;3.47;2.92;;;21.90;99.90;;;;;;5012771;28;20195;-80
2022/09/23 11:59:40;;;;;;;5.93;3.45;;;21.70;99.90;;;;;;5011064;28;20180;-80
2022/09/23 12:02:29;;;;;;;6.22;3.15;;;21.70;99.90;;;;;;5013143;28;20179;-80
2022/09/23 12:05:12;;;;;;;4.45;2.72;;;21.60;99.90;;;;;;5012963;28;20184;-79
2022/09/23 12:07:55;;;;;;;11.82;3.45;;;21.80;99.90;;;;;;5012351;28;20552;-81
2022/09/23 12:10:26;;;;;;;4.45;3.05;;;21.80;99.90;;;;;;5011613;28;20168;-84
2022/09/23 12:13:03;;;;;;;3.78;2.92;;;21.90;99.90;;;;;;5011790;28;20168;-85
2022/09/23 12:15:38;;;;;;;7.07;3.42;;;21.90;99.90;;;;;;5012649;28;20208;-79
2022/09/23 12:18:09;;;;;;;23.42;8.05;;;21.70;99.90;;;;;;5011330;28;20180;-80
2022/09/23 12:20:41;;;;;;;5.43;4.43;;;21.70;99.90;;;;;;5012619;28;20525;-84
2022/09/23 12:23:36;;;;;;;7.97;2.78;;;21.80;99.90;;;;;;5012570;28;20684;-79
2022/09/23 12:26:11;;;;;;;10.77;3.00;;;21.60;99.90;;;;;;5012765;28;20169;-82
2022/09/23 12:28:43;;;;;;;4.07;2.88;;;21.70;99.90;;;;;;5011541;28;20177;-79
2022/09/23 12:31:15;;;;;;;10.27;3.38;;;21.80;99.90;;;;;;5012341;28;20192;-80
2022/09/23 12:33:53;;;;;;;9.27;3.05;;;21.70;99.90;;;;;;5012394;28;20800;-80
2022/09/23 12:36:33;;;;;;;5.18;2.63;;;21.70;99.90;;;;;;5012250;28;20542;-79
2022/09/23 12:39:02;;;;;;;8.95;3.13;;;21.60;99.90;;;;;;5012357;28;20183;-80
2022/09/23 12:41:48;;;;;;;6.82;3.08;;;21.60;99.90;;;;;;5012662;28;20176;-79
2022/09/23 12:44:35;;;;;;;3.78;2.83;;;21.50;99.90;;;;;;5011047;28;20650;-81
2022/09/23 12:47:23;;;;;;;9.38;4.32;;;21.50;99.90;;;;;;5011849;28;20172;-79
2022/09/23 12:49:53;;;;;;;4.78;3.30;;;21.30;99.90;;;;;;5012018;28;20180;-88
2022/09/23 12:52:18;;;;;;;4.20;3.30;;;21.30;99.90;;;;;;5012511;28;20178;-83
2022/09/23 12:54:48;;;;;;;11.13;3.03;;;21.30;99.90;;;;;;5012436;28;20378;-79
2022/09/23 12:57:32;;;;;;;7.90;3.20;;;21.50;99.90;;;;;;5011963;28;20614;-79
2022/09/23 13:00:11;;;;;;;10.07;3.30;;;21.60;99.90;;;;;;5012351;28;20689;-80
2022/09/23 13:08:40;;;;;;;4.85;3.70;;;21.80;99.90;;;;;;5019015;28;20585;-80
2022/09/23 13:11:27;;;;;;;4.55;3.47;;;21.70;99.90;;;;;;5020890;28;20554;-79
2022/09/23 13:13:55;;;;;;;6.60;3.58;;;21.80;99.90;;;;;;5021239;28;20188;-79
2022/09/23 13:16:24;;;;;;;10.55;4.53;;;21.60;99.90;;;;;;5018880;28;20678;-79
2022/09/23 13:18:54;;;;;;;6.75;4.30;;;21.70;99.90;;;;;;5018974;28;20169;-79
2022/09/23 13:21:41;;;;;;;4.50;3.70;;;21.40;99.90;;;;;;5019136;28;20183;-79
2022/09/23 13:24:22;;;;;;;13.68;3.83;;;21.50;99.90;;;;;;5015558;28;20335;-80
2022/09/23 13:26:56;;;;;;;4.68;3.95;;;21.60;99.90;;;;;;5016397;28;20232;-79